createdAt,value
2023-05-14T00:00:19.509Z,99242.84
2023-05-14T00:01:23.412Z,99238.47
2023-05-14T00:02:26.652Z,99247.94
2023-05-14T00:03:30.553Z,99247.09
2023-05-14T00:04:33.809Z,99245.19
2023-05-14T00:05:37.698Z,99246.94
2023-05-14T00:06:40.534Z,99249.50
2023-05-14T00:07:44.338Z,99252.06
2023-05-14T00:08:47.297Z,99251.16
2023-05-14T00:09:51.313Z,99245.03
2023-05-14T00:10:54.356Z,99256.13
2023-05-14T00:11:58.556Z,99247.28
2023-05-14T00:13:01.929Z,99253.34
2023-05-14T00:14:05.986Z,99261.88
2023-05-14T00:15:10.928Z,99261.78
2023-05-14T00:16:14.860Z,99260.03
2023-05-14T00:17:18.094Z,99272.03
2023-05-14T00:18:21.953Z,99267.63
2023-05-14T00:19:25.014Z,99267.50
2023-05-14T00:20:29.276Z,99267.44
2023-05-14T00:21:32.543Z,99268.19
2023-05-14T00:22:37.366Z,99272.38
2023-05-14T00:23:40.621Z,99265.44
2023-05-14T00:24:44.773Z,99267.06
2023-05-14T00:25:47.738Z,99265.31
2023-05-14T00:26:51.611Z,99258.34
2023-05-14T00:27:54.736Z,99267.84
2023-05-14T00:28:58.662Z,99266.91
2023-05-14T00:30:02.082Z,99260.00
2023-05-14T00:31:07.466Z,99271.03
2023-05-14T00:32:10.554Z,99265.00
2023-05-14T00:33:14.492Z,99263.97
2023-05-14T00:34:17.476Z,99260.38
2023-05-14T00:35:22.329Z,99271.59
2023-05-14T00:36:25.464Z,99270.66
2023-05-14T00:37:29.613Z,99272.28
2023-05-14T00:38:32.467Z,99273.03
2023-05-14T00:39:36.242Z,99264.38
2023-05-14T00:40:39.417Z,99269.53
2023-05-14T00:41:43.354Z,99271.94
2023-05-14T00:42:46.286Z,99271.06
2023-05-14T00:43:50.233Z,99274.50
2023-05-14T00:44:53.412Z,99265.84
2023-05-14T00:45:57.512Z,99275.28
2023-05-14T00:47:02.155Z,99276.09
2023-05-14T00:48:07.238Z,99270.59
2023-05-14T00:49:10.673Z,99275.06
2023-05-14T00:50:16.290Z,99273.25
2023-05-14T00:51:19.427Z,99278.31
2023-05-14T00:52:23.612Z,99274.84
2023-05-14T00:53:27.035Z,99274.81
2023-05-14T00:54:32.031Z,99270.47
2023-05-14T00:55:34.909Z,99272.16
2023-05-14T00:56:38.976Z,99281.69
2023-05-14T00:57:42.459Z,99277.38
2023-05-14T00:58:46.236Z,99280.78
2023-05-14T00:59:49.314Z,99286.84
2023-05-14T01:00:52.280Z,99282.53
2023-05-14T01:01:56.633Z,99288.59
2023-05-14T01:03:02.212Z,99289.41
2023-05-14T01:04:07.923Z,99298.03
2023-05-14T01:05:11.006Z,99286.81
2023-05-14T01:06:20.027Z,99294.59
2023-05-14T01:07:31.273Z,99293.78
2023-05-14T01:08:47.166Z,99291.22
2023-05-14T01:09:55.564Z,99291.22
2023-05-14T01:11:04.097Z,99298.91
2023-05-14T01:12:12.816Z,99290.28
2023-05-14T01:13:24.369Z,99294.66
2023-05-14T01:14:34.832Z,99298.97
2023-05-14T01:15:41.601Z,99296.38
2023-05-14T01:16:46.491Z,99297.28
2023-05-14T01:17:55.109Z,99298.16
2023-05-14T01:19:02.052Z,99292.09
2023-05-14T01:20:07.382Z,99303.41
2023-05-14T01:21:34.108Z,99306.91
2023-05-14T01:22:38.113Z,99305.13
2023-05-14T01:23:40.936Z,99302.63
2023-05-14T01:24:44.953Z,99303.47
2023-05-14T01:25:48.265Z,99305.25
2023-05-14T01:26:52.880Z,99307.00
2023-05-14T01:28:01.786Z,99299.16
2023-05-14T01:29:12.952Z,99285.16
2023-05-14T01:30:22.711Z,99297.63
2023-05-14T01:31:29.984Z,99299.28
2023-05-14T01:32:34.256Z,99273.97
2023-05-14T01:33:40.997Z,99295.03
2023-05-14T01:34:45.472Z,99293.47
2023-05-14T01:35:53.798Z,99295.16
2023-05-14T01:36:59.087Z,99278.44
2023-05-14T01:38:04.940Z,99292.66
2023-05-14T01:39:10.002Z,99297.03
2023-05-14T01:40:15.692Z,99306.59
2023-05-14T01:41:19.688Z,99305.75
2023-05-14T01:42:24.213Z,99311.78
2023-05-14T01:43:27.655Z,99305.69
2023-05-14T01:44:32.484Z,99312.56
2023-05-14T01:45:37.032Z,99308.25
2023-05-14T01:46:41.176Z,99322.84
2023-05-14T01:47:44.211Z,99309.78
2023-05-14T01:48:48.169Z,99305.50
2023-05-14T01:49:51.430Z,99308.84
2023-05-14T01:50:55.360Z,99309.69
2023-05-14T01:51:59.521Z,99307.94
2023-05-14T01:53:04.038Z,99311.41
2023-05-14T01:54:06.929Z,99315.69
2023-05-14T01:55:11.282Z,99305.34
2023-05-14T01:56:14.561Z,99313.03
2023-05-14T01:57:18.551Z,99310.41
2023-05-14T01:58:21.515Z,99317.34
2023-05-14T01:59:25.573Z,99310.44
2023-05-14T02:00:28.443Z,99316.50
2023-05-14T02:01:32.332Z,99319.84
2023-05-14T02:02:35.354Z,99315.56
2023-05-14T02:03:40.014Z,99317.16
2023-05-14T02:04:42.861Z,99313.53
2023-05-14T02:05:46.848Z,99313.63
2023-05-14T02:06:49.576Z,99314.38
2023-05-14T02:07:54.975Z,99315.31
2023-05-14T02:08:57.969Z,99309.28
2023-05-14T02:10:01.843Z,99312.66
2023-05-14T02:11:04.808Z,99312.84
2023-05-14T02:12:11.318Z,99312.66
2023-05-14T02:13:13.943Z,99318.88
2023-05-14T02:14:17.897Z,99318.88
2023-05-14T02:15:21.160Z,99309.47
2023-05-14T02:16:25.632Z,99310.31
2023-05-14T02:17:28.601Z,99317.22
2023-05-14T02:18:32.954Z,99313.81
2023-05-14T02:19:36.190Z,99314.69
2023-05-14T02:20:40.160Z,99312.06
2023-05-14T02:21:43.324Z,99318.16
2023-05-14T02:22:47.187Z,99314.75
2023-05-14T02:23:51.621Z,99313.00
2023-05-14T02:24:56.373Z,99307.88
2023-05-14T02:25:59.258Z,99309.63
2023-05-14T02:27:03.189Z,99316.56
2023-05-14T02:28:06.324Z,99290.44
2023-05-14T02:29:10.488Z,99319.25
2023-05-14T02:30:13.848Z,99317.50
2023-05-14T02:31:19.646Z,99317.59
2023-05-14T02:32:22.525Z,99311.31
2023-05-14T02:33:26.822Z,99321.81
2023-05-14T02:34:29.752Z,99330.34
2023-05-14T02:35:33.752Z,99313.19
2023-05-14T02:36:37.067Z,99335.00
2023-05-14T02:37:41.629Z,99323.78
2023-05-14T02:38:44.640Z,99329.94
2023-05-14T02:39:50.512Z,99332.56
2023-05-14T02:40:53.555Z,99331.88
2023-05-14T02:41:57.407Z,99331.06
2023-05-14T02:43:00.414Z,99323.44
2023-05-14T02:44:04.413Z,99329.66
2023-05-14T02:45:08.181Z,99334.00
2023-05-14T02:46:11.671Z,99328.28
2023-05-14T02:47:14.531Z,99330.09
2023-05-14T02:48:18.484Z,99335.47
2023-05-14T02:49:21.844Z,99320.88
2023-05-14T02:50:26.081Z,99329.72
2023-05-14T02:51:29.238Z,99328.13
2023-05-14T02:52:33.098Z,99334.25
2023-05-14T02:53:35.971Z,99337.91
2023-05-14T02:54:40.252Z,99338.06
2023-05-14T02:55:44.501Z,99333.91
2023-05-14T02:56:48.849Z,99334.88
2023-05-14T02:57:53.419Z,99340.97
2023-05-14T02:58:57.563Z,99335.81
2023-05-14T03:00:00.928Z,99346.13
2023-05-14T03:01:07.154Z,99341.75
2023-05-14T03:02:10.718Z,99339.28
2023-05-14T03:03:15.493Z,99336.00
2023-05-14T03:04:18.801Z,99345.72
2023-05-14T03:05:22.901Z,99341.13
2023-05-14T03:06:25.803Z,99343.72
2023-05-14T03:07:29.963Z,99342.88
2023-05-14T03:08:32.645Z,99332.59
2023-05-14T03:09:38.320Z,99340.25
2023-05-14T03:10:41.377Z,99348.19
2023-05-14T03:11:46.746Z,99342.84
2023-05-14T03:12:49.995Z,99346.44
2023-05-14T03:13:54.308Z,99346.25
2023-05-14T03:14:57.095Z,99353.19
2023-05-14T03:16:01.228Z,99353.28
2023-05-14T03:17:04.462Z,99349.03
2023-05-14T03:18:08.472Z,99353.19
2023-05-14T03:19:11.340Z,99352.25
2023-05-14T03:20:15.870Z,99353.28
2023-05-14T03:21:18.635Z,99352.38
2023-05-14T03:22:22.691Z,99349.69
2023-05-14T03:23:25.607Z,99352.75
2023-05-14T03:24:29.606Z,99355.53
2023-05-14T03:25:32.504Z,99353.97
2023-05-14T03:26:37.641Z,99356.94
2023-05-14T03:27:41.854Z,99364.63
2023-05-14T03:28:46.359Z,99365.44
2023-05-14T03:29:49.150Z,99371.94
2023-05-14T03:30:53.082Z,99365.19
2023-05-14T03:31:56.323Z,99371.25
2023-05-14T03:33:01.655Z,99359.19
2023-05-14T03:34:04.594Z,99367.69
2023-05-14T03:35:09.774Z,99361.66
2023-05-14T03:36:13.691Z,99369.50
2023-05-14T03:37:16.583Z,99365.75
2023-05-14T03:38:20.642Z,99377.81
2023-05-14T03:39:23.541Z,99369.22
2023-05-14T03:40:27.514Z,99376.88
2023-05-14T03:41:30.495Z,99372.41
2023-05-14T03:42:34.331Z,99377.44
2023-05-14T03:43:38.584Z,99373.16
2023-05-14T03:44:42.584Z,99369.31
2023-05-14T03:45:45.472Z,99372.94
2023-05-14T03:46:49.240Z,99376.31
2023-05-14T03:47:52.285Z,99370.50
2023-05-14T03:48:56.527Z,99389.44
2023-05-14T03:49:59.545Z,99380.81
2023-05-14T03:51:03.452Z,99378.25
2023-05-14T03:52:06.754Z,99372.84
2023-05-14T03:53:11.007Z,99367.50
2023-05-14T03:54:13.834Z,99371.00
2023-05-14T03:55:17.719Z,99381.88
2023-05-14T03:56:20.917Z,99381.84
2023-05-14T03:57:24.819Z,99384.34
2023-05-14T03:58:27.592Z,99371.03
2023-05-14T03:59:33.046Z,99387.59
2023-05-14T04:00:35.916Z,99393.53
2023-05-14T04:01:40.767Z,99375.09
2023-05-14T04:02:43.758Z,99389.25
2023-05-14T04:03:48.115Z,99397.75
2023-05-14T04:04:51.067Z,99392.50
2023-05-14T04:05:57.319Z,99392.53
2023-05-14T04:07:00.147Z,99390.72
2023-05-14T04:08:06.024Z,99382.47
2023-05-14T04:09:10.923Z,99391.88
2023-05-14T04:10:15.011Z,99405.13
2023-05-14T04:11:18.176Z,99399.19
2023-05-14T04:12:22.251Z,99405.25
2023-05-14T04:13:25.702Z,99392.09
2023-05-14T04:14:29.484Z,99401.03
2023-05-14T04:15:34.207Z,99406.19
2023-05-14T04:16:38.578Z,99408.09
2023-05-14T04:17:41.753Z,99400.94
2023-05-14T04:18:46.209Z,99397.50
2023-05-14T04:19:49.078Z,99399.34
2023-05-14T04:20:53.125Z,99397.66
2023-05-14T04:21:56.789Z,99405.53
2023-05-14T04:23:00.572Z,99409.13
2023-05-14T04:24:03.406Z,99395.97
2023-05-14T04:25:08.129Z,99396.94
2023-05-14T04:26:10.868Z,99405.53
2023-05-14T04:27:21.445Z,99392.59
2023-05-14T04:28:24.749Z,99405.38
2023-05-14T04:29:28.701Z,99407.31
2023-05-14T04:30:31.627Z,99399.69
2023-05-14T04:31:38.511Z,99413.41
2023-05-14T04:32:41.560Z,99411.59
2023-05-14T04:33:45.607Z,99401.53
2023-05-14T04:34:48.532Z,99405.94
2023-05-14T04:35:52.771Z,99410.16
2023-05-14T04:36:55.554Z,99409.28
2023-05-14T04:37:59.560Z,99406.38
2023-05-14T04:39:02.525Z,99399.03
2023-05-14T04:40:08.274Z,99404.13
2023-05-14T04:41:11.306Z,99410.38
2023-05-14T04:42:15.089Z,99410.50
2023-05-14T04:43:17.985Z,99399.25
2023-05-14T04:44:22.494Z,99405.59
2023-05-14T04:45:25.417Z,99413.31
2023-05-14T04:46:29.347Z,99410.88
2023-05-14T04:47:33.888Z,99423.81
2023-05-14T04:48:37.932Z,99420.50
2023-05-14T04:49:41.270Z,99426.63
2023-05-14T04:50:45.385Z,99424.81
2023-05-14T04:51:48.579Z,99427.41
2023-05-14T04:52:52.299Z,99414.94
2023-05-14T04:53:55.242Z,99420.19
2023-05-14T04:54:59.262Z,99422.84
2023-05-14T04:56:01.992Z,99417.50
2023-05-14T04:57:06.290Z,99417.22
2023-05-14T04:58:10.307Z,99429.34
2023-05-14T04:59:13.088Z,99426.03
2023-05-14T05:00:18.024Z,99427.75
2023-05-14T05:01:21.251Z,99422.63
2023-05-14T05:02:25.250Z,99419.44
2023-05-14T05:03:29.794Z,99421.19
2023-05-14T05:04:33.856Z,99421.31
2023-05-14T05:05:36.612Z,99418.00
2023-05-14T05:06:40.773Z,99424.00
2023-05-14T05:07:43.548Z,99421.66
2023-05-14T05:08:47.309Z,99415.84
2023-05-14T05:09:50.306Z,99420.25
2023-05-14T05:10:54.187Z,99422.81
2023-05-14T05:11:56.833Z,99422.81
2023-05-14T05:13:00.888Z,99419.47
2023-05-14T05:14:03.560Z,99423.97
2023-05-14T05:15:09.913Z,99418.88
2023-05-14T05:16:12.834Z,99421.38
2023-05-14T05:17:16.743Z,99422.25
2023-05-14T05:18:19.832Z,99419.94
2023-05-14T05:19:35.655Z,99425.97
2023-05-14T05:20:46.733Z,99421.75
2023-05-14T05:21:49.602Z,99427.13
2023-05-14T05:22:53.557Z,99433.31
2023-05-14T05:23:56.262Z,99419.84
2023-05-14T05:25:00.260Z,99420.28
2023-05-14T05:26:03.380Z,99418.19
2023-05-14T05:27:07.461Z,99424.56
2023-05-14T05:28:11.377Z,99424.25
2023-05-14T05:29:14.220Z,99422.09
2023-05-14T05:30:18.344Z,99413.66
2023-05-14T05:31:21.310Z,99418.53
2023-05-14T05:32:25.785Z,99424.09
2023-05-14T05:33:28.487Z,99414.78
2023-05-14T05:34:34.111Z,99423.94
2023-05-14T05:35:37.334Z,99422.41
2023-05-14T05:36:41.329Z,99426.09
2023-05-14T05:37:45.555Z,99432.34
2023-05-14T05:38:49.878Z,99421.25
2023-05-14T05:39:52.537Z,99426.72
2023-05-14T05:40:56.780Z,99426.88
2023-05-14T05:41:59.695Z,99425.72
2023-05-14T05:43:03.600Z,99432.53
2023-05-14T05:44:06.430Z,99439.13
2023-05-14T05:45:11.162Z,99428.16
2023-05-14T05:46:13.879Z,99434.00
2023-05-14T05:47:18.182Z,99436.63
2023-05-14T05:48:20.953Z,99438.34
2023-05-14T05:49:25.117Z,99428.84
2023-05-14T05:50:29.269Z,99430.72
2023-05-14T05:51:33.299Z,99430.09
2023-05-14T05:52:36.133Z,99440.34
2023-05-14T05:53:40.064Z,99440.19
2023-05-14T05:54:42.973Z,99434.19
2023-05-14T05:55:46.984Z,99432.72
2023-05-14T05:56:49.688Z,99425.81
2023-05-14T05:57:54.196Z,99444.13
2023-05-14T05:58:56.916Z,99441.59
2023-05-14T06:00:01.171Z,99443.44
2023-05-14T06:01:04.356Z,99440.94
2023-05-14T06:02:08.533Z,99442.81
2023-05-14T06:03:12.167Z,99445.50
2023-05-14T06:04:16.088Z,99440.09
2023-05-14T06:05:19.549Z,99451.13
2023-05-14T06:06:24.913Z,99441.00
2023-05-14T06:07:28.017Z,99448.25
2023-05-14T06:08:31.885Z,99447.16
2023-05-14T06:09:34.788Z,99438.34
2023-05-14T06:10:38.692Z,99440.19
2023-05-14T06:11:41.561Z,99443.56
2023-05-14T06:12:45.346Z,99439.13
2023-05-14T06:13:48.342Z,99442.53
2023-05-14T06:14:52.371Z,99447.66
2023-05-14T06:15:55.178Z,99446.88
2023-05-14T06:17:00.267Z,99447.59
2023-05-14T06:18:03.270Z,99446.88
2023-05-14T06:19:08.657Z,99438.22
2023-05-14T06:20:12.408Z,99439.00
2023-05-14T06:21:16.218Z,99441.00
2023-05-14T06:22:20.588Z,99449.72
2023-05-14T06:23:24.449Z,99445.09
2023-05-14T06:24:27.355Z,99442.59
2023-05-14T06:25:31.142Z,99445.09
2023-05-14T06:26:33.996Z,99447.78
2023-05-14T06:27:37.783Z,99440.81
2023-05-14T06:28:40.753Z,99429.56
2023-05-14T06:29:44.787Z,99440.19
2023-05-14T06:30:50.540Z,99448.84
2023-05-14T06:31:54.517Z,99445.91
2023-05-14T06:32:57.426Z,99448.59
2023-05-14T06:34:01.291Z,99429.66
2023-05-14T06:35:04.865Z,99453.22
2023-05-14T06:36:09.919Z,99448.13
2023-05-14T06:37:12.996Z,99450.81
2023-05-14T06:38:18.441Z,99452.72
2023-05-14T06:39:21.366Z,99461.41
2023-05-14T06:40:25.602Z,99440.66
2023-05-14T06:41:29.866Z,99459.09
2023-05-14T06:42:33.974Z,99465.22
2023-05-14T06:43:36.660Z,99438.13
2023-05-14T06:44:41.322Z,99471.38
2023-05-14T06:45:44.196Z,99466.84
2023-05-14T06:46:48.079Z,99457.19
2023-05-14T06:47:51.302Z,99459.88
2023-05-14T06:48:57.333Z,99454.88
2023-05-14T06:50:02.108Z,99460.28
2023-05-14T06:51:11.216Z,99460.50
2023-05-14T06:52:14.540Z,99454.59
2023-05-14T06:53:19.944Z,99460.94
2023-05-14T06:54:22.678Z,99448.81
2023-05-14T06:55:26.772Z,99451.63
2023-05-14T06:56:29.491Z,99462.25
2023-05-14T06:57:34.256Z,99463.28
2023-05-14T06:58:37.007Z,99465.03
2023-05-14T06:59:40.773Z,99460.78
2023-05-14T07:00:43.538Z,99458.22
2023-05-14T07:01:47.801Z,99462.56
2023-05-14T07:02:50.786Z,99470.59
2023-05-14T07:03:54.601Z,99462.84
2023-05-14T07:04:57.393Z,99470.75
2023-05-14T07:06:01.334Z,99471.72
2023-05-14T07:07:04.555Z,99468.25
2023-05-14T07:08:08.605Z,99464.00
2023-05-14T07:09:13.540Z,99464.19
2023-05-14T07:10:17.586Z,99465.94
2023-05-14T07:11:20.308Z,99463.31
2023-05-14T07:12:24.458Z,99469.34
2023-05-14T07:13:28.872Z,99467.34
2023-05-14T07:14:31.800Z,99471.97
2023-05-14T07:15:35.516Z,99463.38
2023-05-14T07:16:38.441Z,99465.16
2023-05-14T07:17:42.736Z,99468.63
2023-05-14T07:18:46.391Z,99473.06
2023-05-14T07:19:50.246Z,99467.97
2023-05-14T07:20:52.986Z,99480.25
2023-05-14T07:21:57.236Z,99479.66
2023-05-14T07:23:00.318Z,99472.91
2023-05-14T07:24:04.255Z,99467.97
2023-05-14T07:25:09.270Z,99471.28
2023-05-14T07:26:13.093Z,99472.59
2023-05-14T07:27:17.376Z,99474.59
2023-05-14T07:28:21.568Z,99474.84
2023-05-14T07:29:25.525Z,99472.44
2023-05-14T07:30:29.239Z,99480.44
2023-05-14T07:31:32.020Z,99476.31
2023-05-14T07:32:36.278Z,99474.69
2023-05-14T07:33:39.229Z,99471.31
2023-05-14T07:34:43.001Z,99489.53
2023-05-14T07:35:45.900Z,99472.16
2023-05-14T07:36:49.896Z,99483.34
2023-05-14T07:37:53.129Z,99480.84
2023-05-14T07:38:57.200Z,99487.28
2023-05-14T07:39:59.999Z,99483.84
2023-05-14T07:41:05.726Z,99487.19
2023-05-14T07:42:09.370Z,99493.03
2023-05-14T07:43:13.379Z,99478.53
2023-05-14T07:44:17.839Z,99493.25
2023-05-14T07:45:20.636Z,99479.28
2023-05-14T07:46:26.007Z,99486.94
2023-05-14T07:47:28.809Z,99493.94
2023-05-14T07:48:32.946Z,99478.97
2023-05-14T07:49:35.728Z,99489.50
2023-05-14T07:50:39.789Z,99479.97
2023-05-14T07:51:42.874Z,99486.84
2023-05-14T07:52:47.100Z,99487.78
2023-05-14T07:53:49.928Z,99492.19
2023-05-14T07:54:54.384Z,99484.41
2023-05-14T07:55:57.124Z,99483.63
2023-05-14T07:57:02.394Z,99489.81
2023-05-14T07:58:05.231Z,99488.00
2023-05-14T07:59:09.170Z,99488.97
2023-05-14T08:00:14.023Z,99486.28
2023-05-14T08:01:17.466Z,99486.19
2023-05-14T08:02:21.967Z,99487.19
2023-05-14T08:03:25.165Z,99489.63
2023-05-14T08:04:32.550Z,99495.44
2023-05-14T08:05:36.255Z,99485.09
2023-05-14T08:06:40.486Z,99499.97
2023-05-14T08:07:43.752Z,99485.31
2023-05-14T08:08:47.482Z,99494.97
2023-05-14T08:09:50.335Z,99494.00
2023-05-14T08:10:54.366Z,99494.91
2023-05-14T08:11:57.159Z,99495.78
2023-05-14T08:13:02.394Z,99490.47
2023-05-14T08:14:05.188Z,99493.25
2023-05-14T08:15:10.062Z,99485.50
2023-05-14T08:16:12.865Z,99489.88
2023-05-14T08:17:16.918Z,99496.09
2023-05-14T08:18:19.703Z,99498.81
2023-05-14T08:19:25.092Z,99494.31
2023-05-14T08:20:28.471Z,99483.25
2023-05-14T08:21:33.037Z,99493.72
2023-05-14T08:22:35.810Z,99490.25
2023-05-14T08:23:39.814Z,99493.84
2023-05-14T08:24:43.256Z,99500.00
2023-05-14T08:25:47.053Z,99492.19
2023-05-14T08:26:52.478Z,99490.53
2023-05-14T08:27:56.395Z,99490.56
2023-05-14T08:29:00.682Z,99489.78
2023-05-14T08:30:04.884Z,99482.72
2023-05-14T08:31:09.168Z,99487.09
2023-05-14T08:32:22.825Z,99489.81
2023-05-14T08:33:26.975Z,99486.31
2023-05-14T08:34:30.753Z,99487.28
2023-05-14T08:35:33.657Z,99486.44
2023-05-14T08:36:37.635Z,99486.53
2023-05-14T08:37:40.484Z,99490.72
2023-05-14T08:38:45.622Z,99489.00
2023-05-14T08:39:48.602Z,99497.75
2023-05-14T08:40:58.277Z,99495.16
2023-05-14T08:42:02.635Z,99493.53
2023-05-14T08:43:07.898Z,99487.59
2023-05-14T08:44:14.634Z,99490.81
2023-05-14T08:45:20.706Z,99489.00
2023-05-14T08:46:25.146Z,99490.97
2023-05-14T08:47:30.501Z,99498.03
2023-05-14T08:48:34.442Z,99498.00
2023-05-14T08:49:42.520Z,99500.91
2023-05-14T08:50:45.386Z,99488.78
2023-05-14T08:51:49.426Z,99486.47
2023-05-14T08:52:53.296Z,99496.28
2023-05-14T08:53:56.948Z,99488.72
2023-05-14T08:55:03.293Z,99490.56
2023-05-14T08:56:09.974Z,99488.16
2023-05-14T08:57:16.621Z,99487.25
2023-05-14T08:58:19.398Z,99487.47
2023-05-14T08:59:24.803Z,99490.88
2023-05-14T09:00:28.876Z,99487.31
2023-05-14T09:01:31.748Z,99475.34
2023-05-14T09:02:37.121Z,99486.84
2023-05-14T09:03:42.193Z,99484.25
2023-05-14T09:04:46.792Z,99481.69
2023-05-14T09:05:53.413Z,99479.97
2023-05-14T09:06:56.286Z,99478.41
2023-05-14T09:08:00.288Z,99477.63
2023-05-14T09:09:03.631Z,99473.25
2023-05-14T09:10:09.356Z,99473.41
2023-05-14T09:11:12.764Z,99469.19
2023-05-14T09:12:16.981Z,99470.97
2023-05-14T09:13:19.805Z,99470.06
2023-05-14T09:14:25.255Z,99462.19
2023-05-14T09:15:30.070Z,99464.88
2023-05-14T09:16:34.128Z,99461.44
2023-05-14T09:17:38.249Z,99456.22
2023-05-14T09:18:44.710Z,99460.59
2023-05-14T09:19:49.369Z,99455.34
2023-05-14T09:20:52.647Z,99451.91
2023-05-14T09:21:58.754Z,99452.78
2023-05-14T09:23:01.989Z,99451.94
2023-05-14T09:24:06.246Z,99457.19
2023-05-14T09:25:12.449Z,99451.09
2023-05-14T09:26:18.334Z,99454.59
2023-05-14T09:27:22.188Z,99454.59
2023-05-14T09:28:28.255Z,99452.84
2023-05-14T09:29:34.051Z,99459.84
2023-05-14T09:30:37.352Z,99468.53
2023-05-14T09:31:41.164Z,99458.09
2023-05-14T09:32:46.088Z,99452.88
2023-05-14T09:33:52.248Z,99454.66
2023-05-14T09:34:55.085Z,99458.16
2023-05-14T09:36:02.522Z,99454.66
2023-05-14T09:37:07.031Z,99452.94
2023-05-14T09:38:11.039Z,99458.19
2023-05-14T09:39:13.954Z,99455.63
2023-05-14T09:40:20.201Z,99449.53
2023-05-14T09:41:23.834Z,99453.88
2023-05-14T09:42:27.944Z,99463.50
2023-05-14T09:43:31.843Z,99465.28
2023-05-14T09:44:38.513Z,99459.25
2023-05-14T09:45:42.712Z,99465.38
2023-05-14T09:46:46.114Z,99458.41
2023-05-14T09:47:53.318Z,99467.16
2023-05-14T09:48:56.597Z,99468.03
2023-05-14T09:50:00.529Z,99465.41
2023-05-14T09:51:04.777Z,99468.03
2023-05-14T09:52:08.936Z,99471.53
2023-05-14T09:53:12.075Z,99481.13
2023-05-14T09:54:16.144Z,99468.00
2023-05-14T09:55:21.747Z,99461.94
2023-05-14T09:56:24.650Z,99460.16
2023-05-14T09:57:29.286Z,99450.56
2023-05-14T09:58:32.686Z,99458.44
2023-05-14T09:59:38.024Z,99461.91
2023-05-14T10:00:44.886Z,99461.91
2023-05-14T10:01:49.755Z,99461.03
2023-05-14T10:02:54.372Z,99471.50
2023-05-14T10:03:58.932Z,99467.13
2023-05-14T10:05:04.756Z,99461.88
2023-05-14T10:06:10.722Z,99463.56
2023-05-14T10:07:14.099Z,99462.66
2023-05-14T10:08:23.817Z,99480.78
2023-05-14T10:09:28.625Z,99510.78
2023-05-14T10:10:34.354Z,99474.13
2023-05-14T10:11:39.355Z,99484.50
2023-05-14T10:12:44.982Z,99484.91
2023-05-14T10:13:55.017Z,99491.00
2023-05-14T10:15:02.172Z,99469.84
2023-05-14T10:16:10.408Z,99494.06
2023-05-14T10:17:18.655Z,99483.47
2023-05-14T10:18:25.386Z,99495.25
2023-05-14T10:19:32.782Z,99496.88
2023-05-14T10:20:38.377Z,99500.97
2023-05-14T10:21:43.389Z,99496.44
2023-05-14T10:22:48.246Z,99490.94
2023-05-14T10:23:52.739Z,99494.16
2023-05-14T10:24:56.573Z,99506.97
2023-05-14T10:26:00.527Z,99510.25
2023-05-14T10:27:03.684Z,99508.16
2023-05-14T10:28:08.089Z,99513.25
2023-05-14T10:29:11.576Z,99508.59
2023-05-14T10:30:17.207Z,99520.22
2023-05-14T10:31:24.027Z,99519.13
2023-05-14T10:32:28.641Z,99525.78
2023-05-14T10:33:33.123Z,99519.59
2023-05-14T10:34:41.294Z,99528.13
2023-05-14T10:35:58.553Z,99536.66
2023-05-14T10:37:03.176Z,99521.84
2023-05-14T10:38:10.345Z,99522.50
2023-05-14T10:39:13.467Z,99529.25
2023-05-14T10:40:18.835Z,99525.66
2023-05-14T10:41:22.106Z,99536.88
2023-05-14T10:42:27.978Z,99536.78
2023-05-14T10:43:31.816Z,99531.38
2023-05-14T10:44:37.209Z,99525.25
2023-05-14T10:45:44.999Z,99541.56
2023-05-14T10:46:47.747Z,99541.53
2023-05-14T10:47:51.850Z,99540.66
2023-05-14T10:48:54.674Z,99543.03
2023-05-14T10:50:01.155Z,99539.59
2023-05-14T10:51:04.258Z,99538.63
2023-05-14T10:52:10.379Z,99541.22
2023-05-14T10:53:15.981Z,99542.00
2023-05-14T10:54:18.892Z,99542.06
2023-05-14T10:55:23.576Z,99537.09
2023-05-14T10:56:26.512Z,99538.00
2023-05-14T10:57:32.052Z,99545.06
2023-05-14T10:58:37.734Z,99528.50
2023-05-14T10:59:44.438Z,99533.03
2023-05-14T11:00:51.333Z,99540.09
2023-05-14T11:01:54.044Z,99545.22
2023-05-14T11:02:58.652Z,99534.91
2023-05-14T11:04:04.203Z,99541.91
2023-05-14T11:05:11.408Z,99546.28
2023-05-14T11:06:16.169Z,99543.78
2023-05-14T11:07:24.645Z,99550.78
2023-05-14T11:08:29.512Z,99537.91
2023-05-14T11:09:32.913Z,99543.19
2023-05-14T11:10:37.345Z,99542.38
2023-05-14T11:11:40.452Z,99538.25
2023-05-14T11:12:45.240Z,99534.75
2023-05-14T11:13:49.577Z,99534.88
2023-05-14T11:14:54.059Z,99538.47
2023-05-14T11:16:06.275Z,99521.19
2023-05-14T11:17:18.807Z,99535.22
2023-05-14T11:18:29.686Z,99525.91
2023-05-14T11:19:32.365Z,99531.28
2023-05-14T11:20:37.840Z,99538.28
2023-05-14T11:21:40.681Z,99534.03
2023-05-14T11:22:45.976Z,99531.50
2023-05-14T11:23:48.798Z,99532.47
2023-05-14T11:24:52.990Z,99543.88
2023-05-14T11:25:58.492Z,99531.91
2023-05-14T11:27:01.535Z,99542.47
2023-05-14T11:28:05.923Z,99537.38
2023-05-14T11:29:08.887Z,99553.13
2023-05-14T11:30:17.578Z,99534.09
2023-05-14T11:31:22.792Z,99545.44
2023-05-14T11:32:27.362Z,99539.53
2023-05-14T11:33:31.802Z,99554.34
2023-05-14T11:34:34.933Z,99533.59
2023-05-14T11:35:39.764Z,99550.00
2023-05-14T11:36:42.733Z,99551.88
2023-05-14T11:37:52.666Z,99545.78
2023-05-14T11:38:55.440Z,99545.84
2023-05-14T11:40:02.309Z,99532.63
2023-05-14T11:41:05.908Z,99545.84
2023-05-14T11:42:14.881Z,99537.25
2023-05-14T11:43:17.724Z,99538.97
2023-05-14T11:44:21.650Z,99551.16
2023-05-14T11:45:27.828Z,99551.97
2023-05-14T11:46:33.778Z,99557.13
2023-05-14T11:47:36.653Z,99548.47
2023-05-14T11:48:42.325Z,99545.81
2023-05-14T11:49:45.435Z,99554.59
2023-05-14T11:50:50.226Z,99553.81
2023-05-14T11:51:58.451Z,99549.75
2023-05-14T11:53:02.746Z,99554.22
2023-05-14T11:54:05.621Z,99555.19
2023-05-14T11:55:13.138Z,99554.56
2023-05-14T11:56:16.211Z,99555.56
2023-05-14T11:57:21.726Z,99558.41
2023-05-14T11:58:25.209Z,99552.47
2023-05-14T11:59:30.229Z,99552.47
2023-05-14T12:00:34.344Z,99546.53
2023-05-14T12:01:40.359Z,99561.38
2023-05-14T12:02:43.299Z,99554.50
2023-05-14T12:03:47.788Z,99559.81
2023-05-14T12:04:52.139Z,99549.38
2023-05-14T12:05:59.556Z,99552.03
2023-05-14T12:07:09.152Z,99552.13
2023-05-14T12:08:22.546Z,99546.91
2023-05-14T12:09:25.614Z,99535.41
2023-05-14T12:10:29.656Z,99547.75
2023-05-14T12:11:32.624Z,99552.00
2023-05-14T12:12:37.720Z,99552.91
2023-05-14T12:13:40.964Z,99542.41
2023-05-14T12:14:45.716Z,99550.16
2023-05-14T12:15:54.315Z,99556.28
2023-05-14T12:16:59.797Z,99551.06
2023-05-14T12:18:03.000Z,99534.44
2023-05-14T12:19:09.870Z,99544.91
2023-05-14T12:20:14.405Z,99560.56
2023-05-14T12:21:18.120Z,99559.66
2023-05-14T12:22:24.570Z,99560.50
2023-05-14T12:23:29.210Z,99557.97
2023-05-14T12:24:31.949Z,99562.31
2023-05-14T12:25:36.177Z,99550.13
2023-05-14T12:26:39.157Z,99560.56
2023-05-14T12:27:45.768Z,99560.56
2023-05-14T12:28:49.169Z,99544.72
2023-05-14T12:30:09.333Z,99555.19
2023-05-14T12:31:29.113Z,99555.19
2023-05-14T12:32:35.775Z,99554.41
2023-05-14T12:33:38.453Z,99552.63
2023-05-14T12:34:42.507Z,99556.97
2023-05-14T12:35:45.387Z,99559.59
2023-05-14T12:36:50.167Z,99558.63